메인 페이지
METAR-TAF:

METAR-TAF

공항 :

비스뷔, 고틀란드 섬, 스웨덴

위도: 57-40N, 경도: 018-21E, 고도: 51m

현재 날씨관측

예보는 24분 전, 11:50시(UTC)에 발표되었습니다.
서북서9kt
온도 20°C
습도 83%
기압 1012 hPa
시정 10km 이상
1500m 미만 상공 구름 및 적란운 없음

METAR: ESSV 241150Z 29009KT CAVOK 20/17 Q1012

시각: 14:14 (12:14 UTC)

예보

예보는 44분 전, 11:30시(UTC)에 발표되었습니다.
예보 대상 시간: 24일 12시부터 24일 20시까지 (UTC)
10kt
시정 10km 이상
1500m 미만 상공 구름 및 적란운 없음
확률 40%
24일 12시부터 24일 17시까지 (UTC)
고도 3500ft 상공 구름 보통, 적란운.
소나기
전환 중
24일 17시부터 24일 19시까지 (UTC)
여러 방향의 바람 2kt

TAF: ESSV 241130Z 2412/2420 28010KT CAVOK PROB40 2412/2417 SHRA SCT035CB BECMG 2417/2419 VRB02KT

4,000개 이상의 공항 관측 자료 및 예보 (METAR 및 TAF 보고).

지도상에서 검색 가능한 기상관측소가 노란 점과 빨간 점으로 표시되어 있습니다.

기상관측소 명을 보려면 표시 위로 마우스를 이동하세요.

날씨 관측과 예보를 보려면 클릭하세요.

지도 변경 : 확대하려면 엑스 표시가 있는 녹색 버튼, 축소하려면 빼기 표시가 있는 녹색 버튼, 다음 페이지의 지도를 보려면 녹색 화살표를 클릭하세요.


METAR-TAF: